x

Folly Island, Sc (fbis1) Weather Station

11:00pm - Wed 1st Apr 2015 All times are EDT. -4 hours from GMT.

  • Wind
    13mph, 14mph gusts
  • Air Temp 61°f
  • Sea Pressure 1023.4mb
  • Folly Island, Sc
  • Folly Island, Sc

More Historic Weather Station data

Upgrade to MSW Pro to gain access to the past 30 days of data for over 8000 Wavebouys and Weather Stations around the globe.

Join Pro

Comparision Forecast

View Surf forecast
   
Wed 04/01 11:00pm 13 14 mph 1023.4mb 61f
10:00pm 15 17 mph 1022.5mb 60f
9:00pm 16 20 mph 1021.7mb 60f
8:00pm 17 21 mph 1020.9mb 60f
7:00pm 20 21 mph 1020.1mb 60f
6:00pm 20 22 mph 1019.8mb 59f
5:00pm 22 24 mph 1019.2mb 59f
4:00pm 20 23 mph 1018.8mb 59f
3:00pm 23 24 mph 1018.8mb 59f
2:00pm 23 26 mph 1018.2mb 60f
1:00pm 6 7 mph 1017.9mb 62f
12:00pm 6 7 mph 1017.4mb 64f
11:00am 6 8 mph 1017.7mb 64f
10:00am 8 14 mph 1016.7mb 66f
9:00am 8 13 mph 1015.7mb 66f
8:00am 7 10 mph 1015.4mb 65f
7:00am 8 14 mph 1014.6mb 65f
6:00am 10 14 mph 1013.5mb 64f
5:00am 9 11 mph 1013.2mb 63f
4:00am 6 7 mph 1012.3mb 62f
3:00am 6 8 mph 1012.8mb 63f
2:00am 9 14 mph 1013.4mb 64f
1:00am 9 10 mph 1013.8mb 64f
12:00am 15 18 mph 1013.7mb 64f
Tue 03/31 11:00pm 13 20 mph 1013.4mb 64f
10:00pm 11 15 mph 1013.5mb 63f
9:00pm 13 17 mph 1013.2mb 64f
8:00pm 13 15 mph 1012.6mb 62f
7:00pm 17 18 mph 1012.7mb 63f
6:00pm 13 14 mph 1013.3mb 63f
5:00pm 15 16 mph 1013.9mb 64f
4:00pm 14 16 mph 1014.2mb 64f
3:00pm 13 16 mph 1015.4mb 64f
2:00pm 14 16 mph 1016.5mb 63f
1:00pm 9 10 mph 1017.6mb 64f
12:00pm 6 7 mph 1018.1mb 63f
11:00am 5
mph
1018.6mb 63f
10:00am 6 8 mph 1018.6mb 63f
9:00am 7 11 mph 1018.5mb 59f
8:00am 3 6 mph 1018.2mb 55f
7:00am 5 6 mph 1018mb 54f
6:00am 2 5 mph 1017.8mb 55f
5:00am 6 8 mph 1017.4mb 56f
4:00am 6 7 mph 1017.6mb 57f
3:00am 8 9 mph 1018.1mb 58f
2:00am 8 9 mph 1018.2mb 58f
1:00am 6 8 mph 1018.6mb 59f
12:00am 6 7 mph 1018.8mb 58f
Mon 03/30 11:00pm 8 9 mph 1018.7mb 60f
10:00pm 7 8 mph 1018.4mb 60f
9:00pm 7 9 mph 1017.9mb 62f
8:00pm 6 7 mph 1017.5mb 62f
7:00pm 8 13 mph 1017.2mb 66f
6:00pm 14 20 mph 1017mb 67f
5:00pm 13 17 mph 1017.4mb 67f
4:00pm 18 22 mph 1018mb 61f
3:00pm 23 29 mph 1019.1mb 62f
2:00pm 16 21 mph 1019.3mb 60f
1:00pm 20 25 mph 1020.8mb 61f
12:00pm 17 21 mph 1022.2mb 59f
11:00am 20 24 mph 1022.2mb 58f
10:00am 17 21 mph 1022.7mb 60f
9:00am 18 22 mph 1022.8mb 58f
8:00am 15 18 mph 1023.4mb 57f
7:00am 10 14 mph 1023.4mb 56f
6:00am 11 17 mph 1023.1mb 55f
5:00am 15 20 mph 1023.4mb 55f
4:00am 17 20 mph 1023.8mb 55f
3:00am 15 18 mph 1024.5mb 55f
2:00am 15 17 mph 1025.9mb 54f
1:00am 16 18 mph 1026.7mb 53f
12:00am 13 15 mph 1027.2mb 53f
Sun 03/29 11:00pm 15 17 mph 1027.2mb 53f
10:00pm 9 11 mph 1027.8mb 52f
9:00pm 9 10 mph 1027.7mb 51f
8:00pm 5 6 mph 1027.9mb 50f
7:00pm 8 10 mph 1027.6mb 50f
6:00pm 5 7 mph 1027.9mb 50f
5:00pm 6 8 mph 1028.1mb 49f
4:00pm 7 9 mph 1028.3mb 48f
3:00pm 6 7 mph 1029.6mb 48f
2:00pm 5 6 mph 1030.3mb 47f
1:00pm 7 8 mph 1030.8mb 45f
12:00pm 9 11 mph 1031.3mb 45f
11:00am 17 20 mph 1031.4mb 42f
10:00am 18 23 mph 1031.1mb 41f
9:00am 21 24 mph 1030.2mb 41f
8:00am 23 26 mph 1029.4mb 39f
7:00am 21 26 mph 1028.4mb 40f
6:00am 22 25 mph 1027mb 41f
5:00am 22 29 mph 1025.9mb 42f